Time;durP1;ratioP1;P1;durP2;ratioP2;P2;SDS_P1;SDS_P2;PMS_P1;PMS_P2;Temp;Humidity;BMP_temperature;BMP_pressure;BME280_temperature;BME280_humidity;BME280_pressure;Samples;Min_cycle;Max_cycle;Signal;HPM_P1;HPM_P2
2023/10/19 03:56:26;;;;;;;;;;;;;;;;;;;;;
2023/10/19 03:59:50;;;;;;;;;;;;;;;;;;;;;
2023/10/19 04:25:08;;;;;;;28.25;13.95;;;8.90;99.90;;;;;;5668352;25;20099;-77
2023/10/19 04:27:35;;;;;;;32.60;15.23;;;8.90;99.90;;;;;;5686449;25;20013;-79
2023/10/19 04:30:16;;;;;;;34.92;15.73;;;9.00;99.90;;;;;;5949052;23;20054;-79
2023/10/19 04:32:44;;;;;;;46.72;18.17;;;9.00;99.90;;;;;;6104584;23;20328;-78
2023/10/19 04:35:09;;;;;;;45.05;18.02;;;9.00;99.90;;;;;;6156217;23;20080;-79
2023/10/19 04:37:35;;;;;;;41.67;17.88;;;9.00;99.90;;;;;;6132967;23;20145;-78
2023/10/19 04:40:02;;;;;;;41.38;17.73;;;9.10;99.90;;;;;;6133610;23;20117;-78
2023/10/19 04:42:28;;;;;;;40.65;18.23;;;9.10;99.90;;;;;;6133893;23;20009;-79
2023/10/19 04:44:56;;;;;;;41.25;18.27;;;9.10;99.90;;;;;;6133757;23;20538;-79
2023/10/19 04:47:23;;;;;;;42.85;17.90;;;9.10;99.90;;;;;;6108902;23;20049;-82
2023/10/19 04:49:49;;;;;;;49.40;19.00;;;9.10;99.90;;;;;;6133742;23;20017;-80
2023/10/19 04:52:15;;;;;;;49.00;18.67;;;9.10;99.90;;;;;;6132913;23;20433;-79
2023/10/19 04:54:42;;;;;;;48.05;20.08;;;9.10;99.90;;;;;;6133350;23;20049;-80
2023/10/19 04:57:07;;;;;;;59.28;21.23;;;9.10;99.90;;;;;;6134362;23;20311;-81
2023/10/19 04:59:33;;;;;;;48.90;19.90;;;9.10;99.90;;;;;;6159427;23;20097;-81
2023/10/19 05:02:01;;;;;;;52.13;20.35;;;9.10;99.90;;;;;;6132858;23;20016;-80
2023/10/19 05:04:27;;;;;;;59.22;20.40;;;9.10;99.90;;;;;;6133326;23;20013;-81
2023/10/19 05:06:53;;;;;;;54.88;21.13;;;9.10;99.90;;;;;;6159013;23;20020;-79
2023/10/19 05:09:19;;;;;;;58.17;20.55;;;9.10;99.90;;;;;;6132944;23;20013;-79
2023/10/19 05:11:45;;;;;;;56.42;21.13;;;9.20;99.90;;;;;;6132772;23;20010;-79
2023/10/19 05:14:14;;;;;;;57.00;21.35;;;9.20;99.90;;;;;;6133159;23;20041;-79
2023/10/19 05:16:40;;;;;;;55.97;21.80;;;9.20;99.90;;;;;;6158995;23;20061;-79
2023/10/19 05:19:06;;;;;;;62.22;21.85;;;9.20;99.90;;;;;;6133743;23;20013;-79
2023/10/19 05:21:33;;;;;;;59.78;21.70;;;9.20;99.90;;;;;;6132681;23;20014;-78
2023/10/19 05:24:02;;;;;;;57.83;21.98;;;9.20;99.90;;;;;;6132733;23;20009;-80
2023/10/19 05:26:28;;;;;;;61.38;22.83;;;9.20;99.90;;;;;;6132812;23;20010;-81
2023/10/19 05:28:54;;;;;;;65.97;23.20;;;9.30;99.90;;;;;;6108524;23;20049;-83
2023/10/19 05:31:20;;;;;;;71.60;23.08;;;9.20;99.90;;;;;;6132784;23;20013;-81
2023/10/19 05:33:56;;;;;;;63.78;22.73;;;9.20;99.90;;;;;;6132784;23;20017;-85
2023/10/19 05:36:22;;;;;;;80.03;24.08;;;9.30;99.90;;;;;;6158515;23;20012;-81
2023/10/19 05:38:47;;;;;;;67.60;22.83;;;9.20;99.90;;;;;;6132897;23;20009;-82
2023/10/19 05:41:14;;;;;;;73.05;22.55;;;9.30;99.90;;;;;;6133098;23;20495;-82
2023/10/19 05:43:40;;;;;;;71.85;23.23;;;9.30;99.90;;;;;;6133141;23;20017;-81
2023/10/19 05:46:05;;;;;;;79.03;24.65;;;9.30;99.90;;;;;;6132772;23;20025;-81
2023/10/19 05:48:31;;;;;;;78.45;24.25;;;9.30;99.90;;;;;;6157806;23;20081;-82
2023/10/19 05:50:57;;;;;;;77.78;24.30;;;9.30;99.90;;;;;;6157856;23;20016;-82
2023/10/19 05:53:22;;;;;;;66.18;20.63;;;9.40;99.90;;;;;;6131541;23;20346;-81
2023/10/19 05:55:49;;;;;;;64.95;21.33;;;9.30;99.90;;;;;;6157228;23;20080;-82
2023/10/19 05:58:15;;;;;;;67.80;21.85;;;9.40;99.90;;;;;;6131940;23;20009;-80
2023/10/19 06:00:41;;;;;;;62.47;20.40;;;9.40;99.90;;;;;;6130828;23;20021;-82
2023/10/19 06:03:07;;;;;;;63.72;21.35;;;9.40;99.90;;;;;;6131202;23;20020;-81
2023/10/19 06:05:33;;;;;;;66.65;22.55;;;9.40;99.90;;;;;;6131142;23;20018;-81
2023/10/19 06:07:59;;;;;;;51.08;18.42;;;9.40;99.90;;;;;;6157386;23;20452;-81
2023/10/19 06:10:28;;;;;;;52.97;19.25;;;9.50;99.90;;;;;;6157314;23;20028;-81
2023/10/19 06:12:54;;;;;;;46.20;18.38;;;9.50;99.90;;;;;;6157528;23;20009;-83
2023/10/19 06:15:24;;;;;;;51.55;19.13;;;9.50;99.90;;;;;;6156635;23;20020;-81
2023/10/19 06:17:50;;;;;;;49.53;19.40;;;9.50;99.90;;;;;;6130855;23;20060;-81
2023/10/19 06:20:51;;;;;;;55.65;19.50;;;9.50;99.90;;;;;;6130615;23;20014;-81
2023/10/19 06:23:08;;;;;;;57.67;19.95;;;9.50;99.90;;;;;;6151011;23;20018;-81
2023/10/19 06:25:36;;;;;;;52.53;19.25;;;9.50;99.90;;;;;;6130860;23;20447;-80
2023/10/19 06:28:03;;;;;;;62.00;19.42;;;9.60;99.90;;;;;;6156890;23;20009;-80
2023/10/19 06:30:29;;;;;;;63.63;20.02;;;9.60;99.90;;;;;;6156672;23;20395;-81
2023/10/19 06:33:00;;;;;;;59.90;19.83;;;9.60;99.90;;;;;;6156499;23;20009;-82
2023/10/19 06:35:26;;;;;;;57.83;19.90;;;9.60;99.90;;;;;;6130769;23;20041;-81
2023/10/19 06:37:54;;;;;;;60.38;20.00;;;9.60;99.90;;;;;;6130670;23;20084;-80
2023/10/19 06:40:21;;;;;;;58.33;19.40;;;9.60;99.90;;;;;;6130454;23;20017;-80
2023/10/19 06:42:49;;;;;;;57.20;19.90;;;9.60;99.90;;;;;;6157582;23;20041;-81
2023/10/19 06:45:16;;;;;;;57.75;18.48;;;9.70;99.90;;;;;;6130698;23;20019;-80
2023/10/19 06:47:46;;;;;;;69.35;20.10;;;9.70;99.90;;;;;;6156621;23;20005;-80
2023/10/19 06:50:15;;;;;;;64.05;19.60;;;9.70;99.90;;;;;;6131392;23;20017;-80
2023/10/19 06:52:42;;;;;;;58.35;19.77;;;9.70;99.90;;;;;;6130529;23;20347;-82
2023/10/19 06:55:30;;;;;;;56.42;19.38;;;9.70;99.90;;;;;;6157022;23;20013;-80
2023/10/19 06:57:55;;;;;;;58.53;18.60;;;9.80;99.90;;;;;;6155320;23;20085;-81
2023/10/19 07:00:23;;;;;;;55.08;18.67;;;9.80;99.90;;;;;;6130373;23;20037;-82
2023/10/19 07:02:52;;;;;;;65.20;18.42;;;9.80;99.90;;;;;;6131354;23;20081;-82
2023/10/19 07:05:23;;;;;;;66.68;19.13;;;9.80;99.90;;;;;;6157776;23;20005;-80
2023/10/19 07:07:51;;;;;;;60.63;19.70;;;9.80;99.90;;;;;;6158051;23;20315;-81
2023/10/19 07:10:18;;;;;;;54.85;18.23;;;9.80;99.90;;;;;;6156508;23;20010;-80
2023/10/19 07:12:51;;;;;;;59.92;19.17;;;9.80;99.90;;;;;;6130660;23;20010;-81
2023/10/19 07:15:22;;;;;;;68.75;19.45;;;9.80;99.90;;;;;;6106343;23;20025;-81
2023/10/19 07:17:48;;;;;;;40.10;12.65;;;9.80;99.90;;;;;;6130303;23;20013;-81
2023/10/19 07:20:25;;;;;;;38.40;14.20;;;9.90;99.90;;;;;;6156792;23;20335;-81
2023/10/19 07:22:55;;;;;;;48.13;15.10;;;9.90;99.90;;;;;;6156485;23;20064;-81
2023/10/19 07:25:21;;;;;;;58.92;17.77;;;9.90;99.90;;;;;;6156455;23;20459;-82
2023/10/19 07:27:49;;;;;;;47.25;15.75;;;9.90;99.90;;;;;;6130751;23;20367;-82
2023/10/19 07:30:22;;;;;;;53.10;17.65;;;9.90;99.90;;;;;;6130492;23;20041;-81
2023/10/19 07:32:54;;;;;;;59.58;17.23;;;9.90;99.90;;;;;;6130618;23;20021;-80
2023/10/19 07:35:21;;;;;;;59.92;17.75;;;9.90;99.90;;;;;;6156586;23;20037;-80
2023/10/19 07:38:08;;;;;;;55.33;17.73;;;10.00;99.90;;;;;;6132084;23;20029;-80
2023/10/19 07:40:36;;;;;;;53.70;17.13;;;10.00;99.90;;;;;;6149515;23;20017;-81
2023/10/19 07:43:03;;;;;;;36.75;12.98;;;10.00;99.90;;;;;;6156745;23;20061;-81
2023/10/19 07:45:31;;;;;;;36.80;12.02;;;10.00;99.90;;;;;;6130392;23;20018;-80
2023/10/19 07:47:57;;;;;;;58.92;20.10;;;10.00;99.90;;;;;;6130444;23;20045;-80
2023/10/19 07:50:23;;;;;;;45.95;17.70;;;10.10;99.90;;;;;;6155970;23;20021;-80
2023/10/19 07:52:53;;;;;;;35.30;13.38;;;10.10;99.90;;;;;;6156158;23;20014;-78
2023/10/19 07:55:24;;;;;;;34.00;12.35;;;10.10;99.90;;;;;;6129941;23;20037;-79
2023/10/19 07:57:51;;;;;;;33.15;12.15;;;10.10;99.90;;;;;;6156430;23;20009;-80
2023/10/19 08:00:18;;;;;;;35.22;11.32;;;10.20;99.90;;;;;;6129813;23;20526;-80
2023/10/19 08:02:47;;;;;;;38.15;11.60;;;10.20;99.90;;;;;;6156373;23;20021;-81
2023/10/19 08:05:14;;;;;;;40.25;12.30;;;10.20;99.90;;;;;;6129866;23;20347;-79
2023/10/19 08:07:42;;;;;;;34.70;11.13;;;10.20;99.90;;;;;;6130220;23;20092;-80
2023/10/19 08:10:10;;;;;;;35.15;11.63;;;10.20;99.90;;;;;;6129795;23;20009;-80
2023/10/19 08:12:37;;;;;;;34.97;11.05;;;10.30;99.90;;;;;;6130286;23;20021;-81
2023/10/19 08:15:03;;;;;;;32.42;11.50;;;10.30;99.90;;;;;;6157349;23;20041;-80
2023/10/19 08:17:30;;;;;;;33.55;11.43;;;10.30;99.90;;;;;;6106542;23;20010;-79
2023/10/19 08:19:56;;;;;;;44.85;11.80;;;10.40;99.90;;;;;;6129660;23;20474;-79
2023/10/19 08:22:23;;;;;;;35.33;11.73;;;10.30;99.90;;;;;;6105635;23;20509;-78
2023/10/19 08:25:01;;;;;;;37.00;12.18;;;10.40;99.90;;;;;;6105191;23;20021;-79
2023/10/19 08:27:29;;;;;;;58.15;18.13;;;10.40;99.90;;;;;;6156689;23;20024;-79
2023/10/19 08:29:55;;;;;;;55.95;17.15;;;10.50;99.90;;;;;;6130069;23;20440;-80
2023/10/19 08:32:21;;;;;;;56.78;17.08;;;10.50;99.90;;;;;;6156008;23;20064;-81
2023/10/19 08:34:47;;;;;;;58.15;17.10;;;10.60;99.90;;;;;;6156086;23;20049;-80
2023/10/19 08:37:13;;;;;;;54.85;16.95;;;10.60;99.90;;;;;;6156104;23;20013;-80
2023/10/19 08:39:38;;;;;;;56.42;17.85;;;10.70;99.90;;;;;;6106051;23;20010;-78
2023/10/19 08:42:05;;;;;;;62.83;18.63;;;10.70;99.90;;;;;;6156051;23;20097;-80
2023/10/19 08:44:31;;;;;;;57.53;17.48;;;10.70;99.90;;;;;;6156785;23;20013;-79
2023/10/19 08:46:59;;;;;;;61.28;18.58;;;10.80;99.90;;;;;;6156156;23;20018;-80
2023/10/19 08:49:26;;;;;;;48.38;15.98;;;10.80;99.90;;;;;;6129632;23;20029;-80
2023/10/19 08:51:53;;;;;;;61.38;16.85;;;10.80;99.90;;;;;;6105204;23;20014;-80
2023/10/19 08:54:20;;;;;;;61.97;18.20;;;10.90;99.90;;;;;;6155973;23;20092;-79
2023/10/19 08:56:47;;;;;;;54.78;16.88;;;10.90;99.90;;;;;;6129676;23;20013;-80
2023/10/19 08:59:16;;;;;;;41.75;13.43;;;10.90;99.90;;;;;;6129848;23;20020;-80
2023/10/19 09:01:43;;;;;;;46.50;14.02;;;10.90;99.90;;;;;;6129408;23;20010;-80
2023/10/19 09:04:16;;;;;;;38.35;13.13;;;11.00;99.90;;;;;;6129531;23;20067;-81
2023/10/19 09:06:42;;;;;;;40.58;13.80;;;11.00;99.90;;;;;;6155633;23;20018;-81
2023/10/19 09:09:18;;;;;;;38.65;14.25;;;11.00;99.90;;;;;;6105358;23;20017;-81
2023/10/19 09:11:44;;;;;;;38.47;12.48;;;11.00;99.90;;;;;;6129485;23;20455;-80
2023/10/19 09:14:12;;;;;;;41.20;12.65;;;11.00;99.90;;;;;;6129499;23;20021;-81
2023/10/19 09:16:55;;;;;;;41.80;13.40;;;11.10;99.90;;;;;;6155519;23;20439;-80
2023/10/19 09:19:34;;;;;;;40.78;12.80;;;11.10;99.90;;;;;;6105358;23;20447;-80
2023/10/19 09:22:02;;;;;;;43.65;13.20;;;11.10;99.90;;;;;;6156289;23;20332;-78
2023/10/19 09:24:27;;;;;;;37.63;13.10;;;11.10;99.90;;;;;;6131808;23;20017;-81
2023/10/19 09:26:57;;;;;;;40.95;14.05;;;11.20;99.90;;;;;;6157840;23;20025;-81
2023/10/19 09:29:25;;;;;;;45.60;14.30;;;11.20;99.90;;;;;;6157745;23;20018;-81
2023/10/19 09:31:54;;;;;;;37.05;13.57;;;11.20;99.90;;;;;;6131482;23;20021;-78
2023/10/19 09:34:21;;;;;;;42.75;13.43;;;11.20;99.90;;;;;;6131807;23;20021;-79
2023/10/19 09:36:47;;;;;;;39.35;13.43;;;11.20;99.90;;;;;;6131693;23;20014;-78
2023/10/19 09:39:14;;;;;;;41.30;12.98;;;11.20;99.90;;;;;;6107211;23;20451;-81
2023/10/19 09:41:43;;;;;;;35.58;12.90;;;11.20;99.90;;;;;;6157795;23;20331;-80
2023/10/19 09:44:12;;;;;;;39.42;14.35;;;11.20;99.90;;;;;;6131389;23;20017;-80
2023/10/19 09:46:40;;;;;;;39.30;13.90;;;11.30;99.90;;;;;;6131065;23;20095;-79
2023/10/19 09:49:06;;;;;;;40.35;13.40;;;11.30;99.90;;;;;;6131180;23;20018;-79
2023/10/19 09:51:33;;;;;;;37.92;13.27;;;11.30;99.90;;;;;;6131074;23;20427;-80
2023/10/19 09:54:10;;;;;;;41.53;13.13;;;11.30;99.90;;;;;;6106741;23;20024;-82
2023/10/19 09:56:45;;;;;;;39.70;13.85;;;11.30;99.90;;;;;;6131492;23;20024;-81
2023/10/19 09:59:38;;;;;;;36.95;13.15;;;11.30;99.90;;;;;;6106534;23;20507;-78
2023/10/19 10:02:12;;;;;;;38.35;13.57;;;11.40;99.90;;;;;;6157200;23;20013;-77
2023/10/19 10:04:40;;;;;;;37.75;13.15;;;11.40;99.90;;;;;;6131426;23;20045;-81
2023/10/19 10:07:07;;;;;;;37.45;13.63;;;11.40;99.90;;;;;;6131011;23;20344;-80
2023/10/19 10:09:46;;;;;;;54.05;18.13;;;11.40;99.90;;;;;;6131004;23;20380;-81
2023/10/19 10:12:19;;;;;;;61.88;19.17;;;11.40;99.90;;;;;;6131675;23;20017;-81
2023/10/19 10:15:09;;;;;;;52.03;17.63;;;11.50;99.90;;;;;;6157004;23;20009;-81
2023/10/19 10:17:37;;;;;;;61.03;18.08;;;11.50;99.90;;;;;;6131835;23;20018;-81
2023/10/19 10:20:17;;;;;;;57.08;17.88;;;11.50;99.90;;;;;;6157411;23;20009;-79
2023/10/19 10:22:43;;;;;;;64.95;18.08;;;11.60;99.90;;;;;;6130853;23;20439;-81
2023/10/19 10:25:28;;;;;;;58.00;18.77;;;11.70;99.90;;;;;;6130972;23;20379;-82
2023/10/19 10:27:55;;;;;;;61.55;17.70;;;11.70;99.90;;;;;;6157054;23;20027;-83
2023/10/19 10:30:21;;;;;;;54.88;17.52;;;11.80;99.90;;;;;;6157195;23;20014;-81
2023/10/19 10:32:48;;;;;;;62.08;18.20;;;11.80;99.90;;;;;;6157196;23;20111;-82
2023/10/19 10:35:36;;;;;;;62.72;18.83;;;11.80;99.90;;;;;;6156985;23;20025;-80
2023/10/19 10:38:06;;;;;;;64.53;19.20;;;11.90;99.90;;;;;;6130960;23;20447;-80
2023/10/19 10:40:43;;;;;;;58.10;18.52;;;11.90;99.90;;;;;;6131159;23;20431;-79
2023/10/19 10:43:10;;;;;;;56.60;18.85;;;11.90;99.90;;;;;;6130682;23;20017;-79
2023/10/19 10:45:36;;;;;;;58.58;18.08;;;11.90;99.90;;;;;;6132076;23;20013;-83
2023/10/19 10:48:03;;;;;;;67.63;19.33;;;12.00;99.90;;;;;;6157197;23;20317;-82
2023/10/19 10:50:30;;;;;;;59.03;18.45;;;12.00;99.90;;;;;;6130605;23;20020;-80
2023/10/19 10:52:59;;;;;;;54.92;17.80;;;12.00;99.90;;;;;;6105884;23;20055;-82
2023/10/19 10:55:25;;;;;;;54.03;18.67;;;12.00;99.90;;;;;;6156985;23;20010;-81
2023/10/19 10:57:51;;;;;;;64.40;18.33;;;12.00;99.90;;;;;;6156944;23;20014;-81
2023/10/19 11:00:20;;;;;;;59.67;19.08;;;12.10;99.90;;;;;;6156312;23;20013;-81
2023/10/19 11:02:58;;;;;;;61.97;19.08;;;12.10;99.90;;;;;;6130485;23;20009;-80
2023/10/19 11:05:24;;;;;;;58.97;18.65;;;12.20;99.90;;;;;;6130457;23;20041;-78
2023/10/19 11:08:13;;;;;;;47.33;14.93;;;12.10;99.90;;;;;;6130370;23;20079;-80
2023/10/19 11:10:42;;;;;;;45.40;15.07;;;12.20;99.90;;;;;;6130895;23;20005;-78
2023/10/19 11:13:11;;;;;;;43.45;14.13;;;12.20;99.90;;;;;;6156861;23;20033;-80
2023/10/19 11:15:38;;;;;;;53.20;15.07;;;12.20;99.90;;;;;;6130281;23;20018;-82
2023/10/19 11:18:07;;;;;;;50.13;20.00;;;12.20;99.90;;;;;;6156424;23;20041;-78
2023/10/19 11:20:33;;;;;;;50.55;17.35;;;12.30;99.90;;;;;;6156574;23;20010;-77
2023/10/19 11:23:02;;;;;;;44.45;15.73;;;12.30;99.90;;;;;;6130285;23;20017;-81
2023/10/19 11:25:29;;;;;;;50.47;15.45;;;12.40;99.90;;;;;;6130316;23;20044;-80
2023/10/19 11:27:55;;;;;;;50.15;17.42;;;12.40;99.90;;;;;;6130445;23;20021;-78
2023/10/19 11:30:29;;;;;;;56.95;19.05;;;12.50;99.90;;;;;;6105712;23;20010;-80
2023/10/19 11:33:00;;;;;;;48.72;17.65;;;12.50;99.90;;;;;;6130957;23;20434;-79
2023/10/19 11:35:29;;;;;;;55.42;18.48;;;12.60;99.90;;;;;;6131494;23;20148;-81
2023/10/19 11:37:59;;;;;;;56.58;19.70;;;12.60;99.90;;;;;;6156658;23;20018;-79
2023/10/19 11:40:26;;;;;;;68.28;26.08;;;12.70;99.90;;;;;;6156203;23;20009;-79
2023/10/19 11:42:56;;;;;;;68.50;25.75;;;12.80;99.90;;;;;;6129877;23;20109;-80
2023/10/19 11:45:23;;;;;;;64.43;24.70;;;12.90;99.90;;;;;;6129623;23;20014;-80
2023/10/19 11:47:50;;;;;;;64.85;25.88;;;12.90;99.90;;;;;;6105787;23;20440;-81
2023/10/19 11:50:17;;;;;;;64.65;24.70;;;12.90;99.90;;;;;;6156007;23;20020;-78
2023/10/19 11:52:45;;;;;;;70.60;25.90;;;13.00;99.90;;;;;;6110783;23;20028;-78
2023/10/19 11:55:13;;;;;;;57.80;23.95;;;13.00;99.90;;;;;;6134363;23;20018;-80
2023/10/19 11:57:40;;;;;;;56.72;24.73;;;13.00;99.90;;;;;;6159675;23;20324;-78
2023/10/19 12:00:13;;;;;;;65.90;24.25;;;13.00;99.90;;;;;;6105429;23;20014;-80
2023/10/19 12:02:40;;;;;;;60.95;24.15;;;13.00;99.90;;;;;;6129777;23;20009;-80
2023/10/19 12:05:10;;;;;;;55.72;24.10;;;12.90;99.90;;;;;;6156085;23;20013;-80
2023/10/19 12:07:37;;;;;;;61.38;23.13;;;13.00;99.90;;;;;;6129807;23;20103;-77
2023/10/19 12:10:12;;;;;;;58.20;23.25;;;12.90;99.90;;;;;;6105276;23;20018;-77
2023/10/19 12:12:38;;;;;;;;;;;12.90;99.90;;;;;;6105649;23;20024;-81
2023/10/19 12:15:05;;;;;;;;;;;12.90;99.90;;;;;;6130120;23;19920;-79
2023/10/19 12:17:34;;;;;;;65.97;24.33;;;12.90;99.90;;;;;;6156102;23;19916;-80
2023/10/19 12:20:00;;;;;;;70.65;25.08;;;12.90;99.90;;;;;;6129859;23;20442;-81
2023/10/19 12:22:32;;;;;;;69.40;25.83;;;12.90;99.90;;;;;;6155740;23;20017;-80
2023/10/19 12:24:59;;;;;;;64.55;26.15;;;12.90;99.90;;;;;;6129653;23;20017;-80
2023/10/19 12:27:25;;;;;;;68.80;25.23;;;13.00;99.90;;;;;;6155820;23;20021;-79
2023/10/19 12:29:54;;;;;;;65.45;23.90;;;12.90;99.90;;;;;;6129654;23;20017;-80
2023/10/19 12:32:21;;;;;;;67.32;24.67;;;12.90;99.90;;;;;;6156038;23;20323;-78
2023/10/19 12:34:52;;;;;;;75.55;25.23;;;12.90;99.90;;;;;;6156590;23;20028;-79
2023/10/19 12:37:19;;;;;;;57.53;22.60;;;12.90;99.90;;;;;;6129627;23;20344;-78
2023/10/19 12:39:47;;;;;;;57.75;23.67;;;12.90;99.90;;;;;;6155953;23;20045;-77
2023/10/19 12:42:14;;;;;;;61.00;24.13;;;12.90;99.90;;;;;;6129422;23;20017;-82
2023/10/19 12:44:41;;;;;;;60.38;24.50;;;12.90;99.90;;;;;;6129706;23;20096;-77
2023/10/19 12:47:12;;;;;;;70.50;25.13;;;12.90;99.90;;;;;;6129579;23;20096;-80
2023/10/19 12:49:40;;;;;;;64.43;24.35;;;12.90;99.90;;;;;;6155989;23;20016;-79
2023/10/19 12:52:10;;;;;;;65.35;24.58;;;12.90;99.90;;;;;;6130210;23;20416;-77
2023/10/19 12:54:37;;;;;;;63.50;25.13;;;12.90;99.90;;;;;;6129422;23;20017;-79
2023/10/19 12:57:04;;;;;;;67.82;25.58;;;12.90;99.90;;;;;;6130123;23;20431;-80
2023/10/19 12:59:30;;;;;;;68.50;25.27;;;12.90;99.90;;;;;;6131509;23;20009;-79
2023/10/19 13:01:58;;;;;;;56.03;24.85;;;12.90;99.90;;;;;;6106877;23;20432;-82
2023/10/19 13:04:25;;;;;;;66.38;24.98;;;12.90;99.90;;;;;;6132075;23;20171;-78
2023/10/19 13:06:51;;;;;;;67.60;24.67;;;12.90;99.90;;;;;;6107092;23;20122;-79
2023/10/19 13:09:38;;;;;;;65.65;24.27;;;12.90;99.90;;;;;;6107159;23;20439;-79
2023/10/19 13:12:07;;;;;;;67.18;24.48;;;12.90;99.90;;;;;;6131000;23;20301;-81
2023/10/19 13:14:34;;;;;;;65.63;25.65;;;12.80;99.90;;;;;;6132193;23;20017;-78
2023/10/19 13:17:00;;;;;;;71.20;25.73;;;12.80;99.90;;;;;;6131864;23;20020;-80
2023/10/19 13:19:26;;;;;;;67.85;25.73;;;12.80;99.90;;;;;;6157866;23;20005;-78
2023/10/19 13:21:52;;;;;;;75.05;26.65;;;12.80;99.90;;;;;;6131166;23;20064;-79
2023/10/19 13:24:20;;;;;;;60.17;24.65;;;12.90;99.90;;;;;;6157325;23;20014;-79
2023/10/19 13:26:49;;;;;;;61.28;24.98;;;12.80;99.90;;;;;;6131278;23;20454;-80
2023/10/19 13:29:15;;;;;;;58.50;23.88;;;12.80;99.90;;;;;;6131150;23;20020;-79
2023/10/19 13:31:41;;;;;;;57.90;24.13;;;12.70;99.90;;;;;;6131458;23;20148;-77
2023/10/19 13:34:10;;;;;;;62.42;24.33;;;12.70;99.90;;;;;;6131037;23;20375;-79
2023/10/19 13:36:36;;;;;;;57.15;22.85;;;12.70;99.90;;;;;;6131098;23;20013;-81
2023/10/19 13:39:03;;;;;;;49.95;21.13;;;12.70;99.90;;;;;;6131649;23;20013;-78
2023/10/19 13:41:29;;;;;;;52.08;21.30;;;12.60;99.90;;;;;;6130894;23;20060;-80
2023/10/19 13:43:55;;;;;;;62.28;23.48;;;12.60;99.90;;;;;;6106392;23;20013;-79
2023/10/19 13:46:23;;;;;;;52.38;22.90;;;12.60;99.90;;;;;;6131125;23;20324;-80
2023/10/19 13:48:49;;;;;;;54.72;22.65;;;12.60;99.90;;;;;;6130990;23;20021;-78
2023/10/19 13:51:19;;;;;;;58.97;24.17;;;12.60;99.90;;;;;;6130927;23;20017;-80
2023/10/19 13:53:45;;;;;;;64.07;23.77;;;12.60;99.90;;;;;;6130777;23;20096;-79
2023/10/19 13:56:11;;;;;;;59.63;21.88;;;12.50;99.90;;;;;;6157395;23;20048;-80
2023/10/19 13:58:37;;;;;;;68.88;25.20;;;12.50;99.90;;;;;;6130962;23;20088;-80
2023/10/19 14:01:06;;;;;;;57.15;23.65;;;12.40;99.90;;;;;;6106434;23;20452;-79
2023/10/19 14:03:34;;;;;;;66.65;22.77;;;12.40;99.90;;;;;;6131012;23;20013;-80
2023/10/19 14:06:00;;;;;;;58.97;20.25;;;12.40;99.90;;;;;;6130826;23;20048;-77
2023/10/19 14:08:26;;;;;;;51.58;21.17;;;12.30;99.90;;;;;;6130496;23;20097;-79
2023/10/19 14:10:51;;;;;;;50.90;21.92;;;12.30;99.90;;;;;;6106484;23;20404;-79
2023/10/19 14:13:17;;;;;;;50.25;21.50;;;12.40;99.90;;;;;;6130601;23;20025;-78
2023/10/19 14:15:43;;;;;;;47.10;21.02;;;12.30;99.90;;;;;;6130831;23;20118;-79
2023/10/19 14:18:10;;;;;;;45.70;20.45;;;12.30;99.90;;;;;;6131635;23;20037;-79
2023/10/19 14:20:38;;;;;;;41.42;19.60;;;12.30;99.90;;;;;;6130628;23;20006;-79
2023/10/19 14:23:05;;;;;;;43.67;19.52;;;12.30;99.90;;;;;;6106140;23;20093;-79
2023/10/19 14:25:30;;;;;;;50.58;21.20;;;12.30;99.90;;;;;;6106268;23;20436;-79
2023/10/19 14:28:00;;;;;;;45.55;19.63;;;12.20;99.90;;;;;;6130675;23;20097;-79
2023/10/19 14:30:28;;;;;;;51.45;20.63;;;12.20;99.90;;;;;;6130705;23;20041;-79
2023/10/19 14:32:54;;;;;;;45.70;20.35;;;12.20;99.90;;;;;;6157130;23;20013;-80
2023/10/19 14:35:22;;;;;;;48.90;20.25;;;12.20;99.90;;;;;;6106506;23;20428;-79
2023/10/19 14:37:49;;;;;;;52.45;20.60;;;12.10;99.90;;;;;;6130849;23;20010;-78
2023/10/19 14:40:23;;;;;;;52.33;20.25;;;12.10;99.90;;;;;;6130712;23;20013;-79
2023/10/19 14:42:53;;;;;;;44.65;21.27;;;12.10;99.90;;;;;;6157161;23;20029;-80
2023/10/19 14:45:19;;;;;;;49.00;20.05;;;12.10;99.90;;;;;;6157144;23;20014;-79
2023/10/19 14:47:51;;;;;;;50.67;21.00;;;12.10;99.90;;;;;;6156857;23;20013;-77
2023/10/19 14:50:18;;;;;;;50.20;21.88;;;12.00;99.90;;;;;;6130315;23;20440;-77
2023/10/19 14:52:45;;;;;;;47.17;21.42;;;12.00;99.90;;;;;;6157097;23;20020;-78
2023/10/19 14:55:12;;;;;;;50.55;21.63;;;12.00;99.90;;;;;;6131005;23;20021;-79
2023/10/19 14:57:39;;;;;;;58.45;22.27;;;12.00;99.90;;;;;;6130871;23;20083;-79
2023/10/19 15:00:21;;;;;;;49.85;21.20;;;12.00;99.90;;;;;;6130479;23;20014;-78
2023/10/19 15:02:51;;;;;;;44.15;20.08;;;12.00;99.90;;;;;;6105854;23;20440;-79
2023/10/19 15:05:19;;;;;;;48.13;20.17;;;12.00;99.90;;;;;;6106024;23;20133;-77
2023/10/19 15:07:52;;;;;;;48.25;20.05;;;12.00;99.90;;;;;;6131146;23;20021;-78
2023/10/19 15:10:20;;;;;;;47.28;19.83;;;12.00;99.90;;;;;;6130287;23;20092;-80
2023/10/19 15:12:46;;;;;;;52.70;19.60;;;11.90;99.90;;;;;;6130306;23;20013;-78
2023/10/19 15:15:11;;;;;;;49.38;19.42;;;11.90;99.90;;;;;;6130479;23;20092;-79
2023/10/19 15:17:41;;;;;;;45.70;18.45;;;11.90;99.90;;;;;;6156504;23;20430;-78
2023/10/19 15:20:10;;;;;;;38.55;17.15;;;11.90;99.90;;;;;;6105286;23;20379;-79
2023/10/19 15:22:39;;;;;;;46.72;18.20;;;11.80;99.90;;;;;;6156422;23;20052;-78
2023/10/19 15:25:07;;;;;;;49.03;18.38;;;11.90;99.90;;;;;;6130296;23;20021;-78
2023/10/19 15:27:37;;;;;;;38.88;17.23;;;11.80;99.90;;;;;;6130109;23;20017;-79
2023/10/19 15:30:06;;;;;;;40.50;16.70;;;11.80;99.90;;;;;;6130060;23;20013;-79
2023/10/19 15:32:32;;;;;;;43.75;17.52;;;11.80;99.90;;;;;;6105528;23;20028;-80
2023/10/19 15:34:58;;;;;;;43.88;18.40;;;11.80;99.90;;;;;;6156388;23;20121;-79
2023/10/19 15:37:24;;;;;;;41.85;18.05;;;11.80;99.90;;;;;;6130986;23;20022;-79
2023/10/19 15:39:50;;;;;;;48.20;18.42;;;11.80;99.90;;;;;;6158560;23;20017;-79
2023/10/19 15:42:17;;;;;;;51.80;20.08;;;11.70;99.90;;;;;;6130030;23;20010;-78
2023/10/19 15:44:45;;;;;;;48.95;19.02;;;11.80;99.90;;;;;;6130948;23;20043;-79
2023/10/19 15:47:17;;;;;;;42.58;19.38;;;11.70;99.90;;;;;;6156080;23;20499;-79
2023/10/19 15:49:53;;;;;;;54.85;24.38;;;11.70;99.90;;;;;;6129791;23;20395;-80
2023/10/19 15:52:20;;;;;;;52.25;21.30;;;11.70;99.90;;;;;;6129874;23;20428;-80
2023/10/19 15:54:46;;;;;;;51.25;20.85;;;11.70;99.90;;;;;;6129631;23;20017;-78
2023/10/19 15:57:12;;;;;;;50.28;20.73;;;11.70;99.90;;;;;;6129884;23;20013;-79
2023/10/19 15:59:38;;;;;;;51.38;20.95;;;11.70;99.90;;;;;;6156177;23;20005;-77
2023/10/19 16:02:04;;;;;;;56.88;21.25;;;11.70;99.90;;;;;;6105386;23;20017;-78
2023/10/19 16:04:30;;;;;;;48.33;20.92;;;11.60;99.90;;;;;;6156639;23;20070;-79
2023/10/19 16:06:56;;;;;;;57.40;21.60;;;11.70;99.90;;;;;;6129951;23;20440;-79
2023/10/19 16:09:22;;;;;;;58.22;21.90;;;11.70;99.90;;;;;;6130006;23;20021;-79
2023/10/19 16:11:51;;;;;;;53.53;21.77;;;11.60;99.90;;;;;;6129882;23;20013;-78
2023/10/19 16:14:20;;;;;;;60.53;24.08;;;11.60;99.90;;;;;;6155851;23;20052;-79
2023/10/19 16:16:46;;;;;;;55.33;21.65;;;11.60;99.90;;;;;;6129901;23;20076;-80
2023/10/19 16:19:13;;;;;;;54.60;22.00;;;11.60;99.90;;;;;;6105989;23;20096;-80
2023/10/19 16:21:40;;;;;;;53.38;21.65;;;11.60;99.90;;;;;;6129504;23;20010;-78
2023/10/19 16:24:10;;;;;;;54.65;21.63;;;11.50;99.90;;;;;;6129485;23;20018;-78
2023/10/19 16:26:37;;;;;;;53.97;22.85;;;11.50;99.90;;;;;;6129601;23;20068;-79
2023/10/19 16:29:14;;;;;;;61.65;24.92;;;11.50;99.90;;;;;;6129696;23;20466;-79
2023/10/19 16:31:42;;;;;;;65.80;24.90;;;11.50;99.90;;;;;;6129303;23;20056;-78
2023/10/19 16:34:10;;;;;;;67.85;26.40;;;11.40;99.90;;;;;;6155855;23;20014;-78
2023/10/19 16:36:37;;;;;;;71.40;26.70;;;11.40;99.90;;;;;;6129541;23;20053;-78
2023/10/19 16:39:04;;;;;;;73.05;26.80;;;11.40;99.90;;;;;;6129545;23;20014;-79
2023/10/19 16:41:30;;;;;;;76.20;25.63;;;11.40;99.90;;;;;;6129484;23;20132;-79
2023/10/19 16:43:56;;;;;;;81.30;27.75;;;11.40;99.90;;;;;;6129563;23;20018;-79
2023/10/19 16:46:23;;;;;;;78.53;27.10;;;11.40;99.90;;;;;;6129520;23;20014;-80
2023/10/19 16:48:48;;;;;;;78.35;28.13;;;11.40;99.90;;;;;;6129533;23;20451;-78
2023/10/19 16:51:15;;;;;;;93.82;31.63;;;11.30;99.90;;;;;;6129411;23;20104;-78
2023/10/19 16:53:40;;;;;;;77.13;30.65;;;11.40;99.90;;;;;;6129455;23;20088;-79
2023/10/19 16:56:06;;;;;;;79.13;29.95;;;11.40;99.90;;;;;;6129616;23;20061;-79
2023/10/19 16:58:32;;;;;;;93.78;30.50;;;11.30;99.90;;;;;;6129640;23;20006;-79